Wetterdaten: Woche 19.10.09 - 25.10.09 (KW43)
Datum Zeit Temperatur Luftfeuchte Luftdruck Niederschlag Wind Richtung Sonnenschein Solar Taupunkt Windchill Windben
19.10.2009 00:00 2.4 C 88 % 1022.1 hPa 0.0 l/m 0.4 km/h (0 Bft) NO 0.00 h 0 W/m 0.6 C 2.4 C 1.2 km/h (1 Bft)
19.10.2009 01:00 1.6 C 89 % 1021.8 hPa 0.0 l/m 0.3 km/h (0 Bft) NO 0.00 h 0 W/m 0.0 C 1.6 C 1.0 km/h (0 Bft)
19.10.2009 02:00 0.8 C 90 % 1021.6 hPa 0.0 l/m 0.1 km/h (0 Bft) NO 0.00 h 0 W/m -0.6 C 0.8 C 0.6 km/h (0 Bft)
19.10.2009 03:00 0.6 C 92 % 1021.2 hPa 0.0 l/m 0.5 km/h (0 Bft) NO 0.00 h 0 W/m -0.5 C 0.6 C 1.1 km/h (1 Bft)
19.10.2009 04:00 0.3 C 93 % 1020.9 hPa 0.0 l/m 0.0 km/h (0 Bft) N 0.00 h 0 W/m -0.6 C 0.3 C 0.2 km/h (0 Bft)
19.10.2009 05:00 0.6 C 95 % 1020.8 hPa 0.0 l/m 0.0 km/h (0 Bft) N 0.00 h 0 W/m -0.2 C 0.6 C 0.4 km/h (0 Bft)
19.10.2009 06:00 1.0 C 95 % 1020.8 hPa 0.0 l/m 1.1 km/h (1 Bft) W 0.00 h 0 W/m 0.3 C 1.0 C 2.8 km/h (1 Bft)
19.10.2009 07:00 1.1 C 96 % 1020.8 hPa 0.0 l/m 0.5 km/h (0 Bft) W 0.00 h 6 W/m 0.5 C 1.1 C 1.3 km/h (1 Bft)
19.10.2009 08:00 1.4 C 96 % 1020.7 hPa 0.0 l/m 0.1 km/h (0 Bft) W 0.05 h 34 W/m 0.8 C 1.4 C 0.7 km/h (0 Bft)
19.10.2009 09:00 2.4 C 97 % 1020.8 hPa 0.0 l/m 0.1 km/h (0 Bft) N-NW 0.28 h 117 W/m 1.9 C 2.4 C 0.7 km/h (0 Bft)
19.10.2009 10:00 4.0 C 88 % 1020.8 hPa 0.0 l/m 4.1 km/h (1 Bft) O-SO 0.05 h 168 W/m 2.1 C 3.2 C 6.8 km/h (2 Bft)
19.10.2009 11:00 5.2 C 78 % 1020.5 hPa 0.0 l/m 7.7 km/h (2 Bft) O-SO 0.33 h 300 W/m 1.7 C 3.6 C 11.9 km/h (2 Bft)
19.10.2009 12:00 6.6 C 71 % 1019.6 hPa 0.0 l/m 7.5 km/h (2 Bft) O-SO 0.72 h 432 W/m 1.8 C 5.3 C 12.7 km/h (3 Bft)
19.10.2009 13:00 6.8 C 70 % 1019.0 hPa 0.0 l/m 9.3 km/h (2 Bft) O-SO 0.57 h 365 W/m 1.6 C 5.1 C 14.8 km/h (3 Bft)
19.10.2009 14:00 7.9 C 65 % 1018.0 hPa 0.0 l/m 9.2 km/h (2 Bft) O-SO 1.00 h 480 W/m 1.7 C 6.3 C 15.1 km/h (3 Bft)
19.10.2009 15:00 8.5 C 60 % 1017.0 hPa 0.0 l/m 11.4 km/h (2 Bft) O-SO 0.78 h 330 W/m 1.2 C 6.6 C 17.5 km/h (3 Bft)
19.10.2009 16:00 8.6 C 60 % 1016.5 hPa 0.0 l/m 8.4 km/h (2 Bft) O-SO 0.98 h 250 W/m 1.3 C 7.4 C 13.7 km/h (3 Bft)
19.10.2009 17:00 8.2 C 61 % 1016.3 hPa 0.0 l/m 5.4 km/h (1 Bft) O-SO 0.60 h 99 W/m 1.0 C 7.6 C 9.1 km/h (2 Bft)
19.10.2009 18:00 6.9 C 66 % 1016.3 hPa 0.0 l/m 2.7 km/h (1 Bft) O-SO 0.02 h 16 W/m 0.9 C 6.8 C 4.5 km/h (1 Bft)
19.10.2009 19:00 4.7 C 75 % 1016.4 hPa 0.0 l/m 2.1 km/h (1 Bft) O-SO 0.00 h 0 W/m 0.6 C 4.7 C 3.5 km/h (1 Bft)
19.10.2009 20:00 3.3 C 81 % 1016.2 hPa 0.0 l/m 0.2 km/h (0 Bft) O-SO 0.00 h 0 W/m 0.4 C 3.3 C 0.7 km/h (0 Bft)
19.10.2009 21:00 2.5 C 85 % 1016.0 hPa 0.0 l/m 0.1 km/h (0 Bft) O-SO 0.00 h 0 W/m 0.3 C 2.5 C 0.4 km/h (0 Bft)
19.10.2009 22:00 1.8 C 88 % 1015.5 hPa 0.0 l/m 0.0 km/h (0 Bft) N-NO 0.00 h 0 W/m 0.1 C 1.8 C 0.3 km/h (0 Bft)
19.10.2009 23:00 1.2 C 90 % 1015.0 hPa 0.0 l/m 0.1 km/h (0 Bft) N-NO 0.00 h 0 W/m -0.2 C 1.2 C 0.5 km/h (0 Bft)
20.10.2009 00:00 0.5 C 91 % 1014.4 hPa 0.0 l/m 0.9 km/h (0 Bft) N-NO 0.00 h 0 W/m -0.7 C 0.5 C 2.0 km/h (1 Bft)
20.10.2009 01:00 -0.0 C 92 % 1013.8 hPa 0.0 l/m 0.2 km/h (0 Bft) N-NO 0.00 h 0 W/m -1.1 C -0.0 C 0.8 km/h (0 Bft)
20.10.2009 02:00 -0.4 C 93 % 1013.3 hPa 0.0 l/m 0.0 km/h (0 Bft) N-NO 0.00 h 0 W/m -1.4 C -0.4 C 0.1 km/h (0 Bft)
20.10.2009 03:00 -0.5 C 95 % 1013.0 hPa 0.0 l/m 0.2 km/h (0 Bft) NW 0.00 h 0 W/m -1.2 C -0.5 C 0.6 km/h (0 Bft)
20.10.2009 04:00 0.3 C 96 % 1012.7 hPa 0.0 l/m 0.3 km/h (0 Bft) NW 0.00 h 0 W/m -0.3 C 0.3 C 1.0 km/h (0 Bft)
20.10.2009 05:00 1.0 C 97 % 1012.6 hPa 0.0 l/m 0.1 km/h (0 Bft) NW 0.00 h 0 W/m 0.5 C 1.0 C 0.8 km/h (0 Bft)
20.10.2009 06:00 1.7 C 97 % 1012.8 hPa 0.0 l/m 0.4 km/h (0 Bft) N-NO 0.00 h 0 W/m 1.3 C 1.7 C 1.6 km/h (1 Bft)
20.10.2009 07:00 1.9 C 97 % 1013.1 hPa 0.0 l/m 0.5 km/h (0 Bft) N 0.00 h 0 W/m 1.4 C 1.9 C 1.9 km/h (1 Bft)
20.10.2009 08:00 2.0 C 97 % 1013.3 hPa 0.0 l/m 0.8 km/h (0 Bft) N-NO 0.00 h 16 W/m 1.6 C 2.0 C 2.5 km/h (1 Bft)
20.10.2009 09:00 2.3 C 96 % 1013.5 hPa 0.2 l/m 0.7 km/h (0 Bft) N-NO 0.00 h 49 W/m 1.7 C 2.3 C 2.4 km/h (1 Bft)
20.10.2009 10:00 2.8 C 93 % 1013.4 hPa 0.0 l/m 3.2 km/h (1 Bft) SO 0.00 h 92 W/m 1.8 C 2.3 C 5.5 km/h (1 Bft)
20.10.2009 11:00 3.6 C 89 % 1013.2 hPa 0.0 l/m 2.3 km/h (1 Bft) O-SO 0.22 h 214 W/m 2.0 C 3.3 C 4.3 km/h (1 Bft)
20.10.2009 12:00 5.9 C 79 % 1012.5 hPa 0.0 l/m 2.3 km/h (1 Bft) O-SO 1.00 h 419 W/m 2.6 C 5.7 C 4.8 km/h (1 Bft)
20.10.2009 13:00 7.3 C 74 % 1011.6 hPa 0.0 l/m 2.8 km/h (1 Bft) W-NW 1.00 h 466 W/m 2.9 C 7.1 C 5.2 km/h (1 Bft)
20.10.2009 14:00 8.8 C 69 % 1010.6 hPa 0.0 l/m 3.4 km/h (1 Bft) W 1.00 h 433 W/m 3.4 C 8.7 C 5.9 km/h (2 Bft)
20.10.2009 15:00 9.9 C 66 % 1009.7 hPa 0.0 l/m 2.2 km/h (1 Bft) W-NW 0.67 h 244 W/m 3.8 C 9.8 C 4.3 km/h (1 Bft)
20.10.2009 16:00 10.7 C 63 % 1009.1 hPa 0.0 l/m 3.5 km/h (1 Bft) O-SO 0.85 h 229 W/m 3.8 C 10.7 C 5.9 km/h (2 Bft)
20.10.2009 17:00 10.1 C 65 % 1008.8 hPa 0.0 l/m 1.8 km/h (1 Bft) O-SO 0.00 h 62 W/m 3.8 C 10.1 C 4.4 km/h (1 Bft)
20.10.2009 18:00 8.5 C 72 % 1008.8 hPa 0.0 l/m 4.0 km/h (1 Bft) O-SO 0.12 h 16 W/m 3.8 C 8.2 C 6.1 km/h (2 Bft)
20.10.2009 19:00 6.9 C 79 % 1008.9 hPa 0.0 l/m 1.5 km/h (1 Bft) O-SO 0.00 h 0 W/m 3.5 C 6.7 C 2.9 km/h (1 Bft)
20.10.2009 20:00 5.8 C 83 % 1009.1 hPa 0.0 l/m 0.0 km/h (0 Bft) N 0.00 h 0 W/m 3.1 C 5.8 C 0.5 km/h (0 Bft)
20.10.2009 21:00 4.6 C 87 % 1009.0 hPa 0.0 l/m 0.5 km/h (0 Bft) O-SO 0.00 h 0 W/m 2.7 C 4.6 C 1.4 km/h (1 Bft)
20.10.2009 22:00 4.0 C 90 % 1008.9 hPa 0.0 l/m 0.6 km/h (0 Bft) O-SO 0.00 h 0 W/m 2.5 C 4.0 C 1.5 km/h (1 Bft)
20.10.2009 23:00 3.7 C 92 % 1008.7 hPa 0.0 l/m 0.1 km/h (0 Bft) O-SO 0.00 h 0 W/m 2.5 C 3.7 C 0.6 km/h (0 Bft)
21.10.2009 00:00 3.5 C 92 % 1008.6 hPa 0.0 l/m 0.1 km/h (0 Bft) O-NO 0.00 h 0 W/m 2.4 C 3.5 C 0.9 km/h (0 Bft)
21.10.2009 01:00 3.2 C 93 % 1008.4 hPa 0.0 l/m 0.1 km/h (0 Bft) N-NW 0.00 h 0 W/m 2.2 C 3.2 C 1.2 km/h (1 Bft)
21.10.2009 02:00 3.1 C 94 % 1008.0 hPa 0.0 l/m 0.4 km/h (0 Bft) O-NO 0.00 h 0 W/m 2.3 C 3.1 C 1.3 km/h (1 Bft)
21.10.2009 03:00 3.4 C 95 % 1007.8 hPa 0.0 l/m 0.4 km/h (0 Bft) N 0.00 h 0 W/m 2.7 C 3.4 C 1.4 km/h (1 Bft)
21.10.2009 04:00 3.4 C 96 % 1007.7 hPa 0.0 l/m 0.5 km/h (0 Bft) N 0.00 h 0 W/m 2.8 C 3.4 C 1.3 km/h (1 Bft)
21.10.2009 05:00 3.4 C 96 % 1007.3 hPa 0.0 l/m 0.8 km/h (0 Bft) W 0.00 h 0 W/m 2.8 C 3.4 C 2.1 km/h (1 Bft)
21.10.2009 06:00 3.9 C 97 % 1007.0 hPa 0.0 l/m 1.5 km/h (1 Bft) O-SO 0.00 h 0 W/m 3.4 C 3.8 C 3.7 km/h (1 Bft)
21.10.2009 07:00 4.3 C 93 % 1006.8 hPa 0.0 l/m 0.7 km/h (0 Bft) O 0.00 h 5 W/m 3.3 C 4.2 C 1.9 km/h (1 Bft)
21.10.2009 08:00 4.6 C 89 % 1006.8 hPa 0.0 l/m 0.8 km/h (0 Bft) O-SO 0.03 h 23 W/m 2.9 C 4.6 C 2.1 km/h (1 Bft)
21.10.2009 09:00 5.1 C 86 % 1006.9 hPa 0.0 l/m 0.8 km/h (0 Bft) O-SO 0.00 h 56 W/m 3.0 C 5.1 C 1.9 km/h (1 Bft)
21.10.2009 10:00 6.8 C 79 % 1006.9 hPa 0.0 l/m 0.4 km/h (0 Bft) O-SO 0.45 h 198 W/m 3.3 C 6.8 C 1.4 km/h (1 Bft)
21.10.2009 11:00 8.9 C 70 % 1006.7 hPa 0.0 l/m 1.3 km/h (1 Bft) SO 0.27 h 237 W/m 3.6 C 8.8 C 2.8 km/h (1 Bft)
21.10.2009 12:00 10.4 C 65 % 1006.2 hPa 0.0 l/m 4.2 km/h (1 Bft) O-SO 0.20 h 240 W/m 4.1 C 10.4 C 7.0 km/h (2 Bft)
21.10.2009 13:00 10.9 C 65 % 1004.9 hPa 0.0 l/m 2.7 km/h (1 Bft) O-SO 0.13 h 201 W/m 4.7 C 10.9 C 5.5 km/h (1 Bft)
21.10.2009 14:00 12.1 C 64 % 1003.7 hPa 0.0 l/m 4.8 km/h (1 Bft) O-SO 0.45 h 268 W/m 5.4 C 12.1 C 7.4 km/h (2 Bft)
21.10.2009 15:00 12.5 C 63 % 1002.5 hPa 0.0 l/m 5.9 km/h (2 Bft) O-SO 0.18 h 184 W/m 5.8 C 12.5 C 9.7 km/h (2 Bft)
21.10.2009 16:00 13.9 C 61 % 1001.3 hPa 0.0 l/m 4.0 km/h (1 Bft) O-SO 0.68 h 215 W/m 6.5 C 13.9 C 7.2 km/h (2 Bft)
21.10.2009 17:00 13.6 C 63 % 1000.4 hPa 0.0 l/m 4.4 km/h (1 Bft) O-SO 0.00 h 29 W/m 6.7 C 13.6 C 7.2 km/h (2 Bft)
21.10.2009 18:00 12.8 C 69 % 999.7 hPa 0.0 l/m 4.9 km/h (1 Bft) O-SO 0.00 h 8 W/m 7.1 C 12.8 C 8.2 km/h (2 Bft)
21.10.2009 19:00 12.1 C 72 % 999.3 hPa 0.0 l/m 3.0 km/h (1 Bft) O-SO 0.00 h 0 W/m 7.1 C 12.1 C 5.1 km/h (1 Bft)
21.10.2009 20:00 11.1 C 73 % 999.4 hPa 0.0 l/m 0.6 km/h (0 Bft) O 0.00 h 0 W/m 6.5 C 11.1 C 1.8 km/h (1 Bft)
21.10.2009 21:00 10.3 C 74 % 999.5 hPa 0.0 l/m 1.9 km/h (1 Bft) O-SO 0.00 h 0 W/m 5.7 C 10.3 C 3.7 km/h (1 Bft)
21.10.2009 22:00 9.7 C 76 % 999.8 hPa 0.0 l/m 0.3 km/h (0 Bft) O-SO 0.00 h 0 W/m 5.7 C 9.7 C 0.9 km/h (0 Bft)
21.10.2009 23:00 8.9 C 83 % 1000.2 hPa 0.0 l/m 1.2 km/h (1 Bft) O-NO 0.00 h 0 W/m 6.1 C 8.9 C 2.7 km/h (1 Bft)
22.10.2009 00:00 8.5 C 83 % 1000.8 hPa 0.0 l/m 2.2 km/h (1 Bft) SO 0.00 h 0 W/m 5.8 C 8.4 C 3.8 km/h (1 Bft)
22.10.2009 01:00 8.7 C 83 % 1001.4 hPa 0.0 l/m 1.6 km/h (1 Bft) O-SO 0.00 h 0 W/m 6.0 C 8.6 C 3.3 km/h (1 Bft)
22.10.2009 02:00 8.2 C 84 % 1001.9 hPa 0.0 l/m 1.5 km/h (1 Bft) O-SO 0.00 h 0 W/m 5.6 C 8.1 C 2.9 km/h (1 Bft)
22.10.2009 03:00 7.4 C 87 % 1001.9 hPa 0.0 l/m 3.6 km/h (1 Bft) O-SO 0.00 h 0 W/m 5.4 C 7.1 C 5.3 km/h (1 Bft)
22.10.2009 04:00 7.3 C 89 % 1001.9 hPa 0.0 l/m 4.0 km/h (1 Bft) O-SO 0.00 h 0 W/m 5.6 C 6.9 C 5.6 km/h (1 Bft)
22.10.2009 05:00 7.3 C 89 % 1002.3 hPa 0.0 l/m 3.0 km/h (1 Bft) O-SO 0.00 h 0 W/m 5.6 C 7.0 C 4.6 km/h (1 Bft)
22.10.2009 06:00 6.4 C 89 % 1002.1 hPa 0.0 l/m 0.3 km/h (0 Bft) O 0.00 h 0 W/m 4.8 C 6.4 C 1.0 km/h (0 Bft)
22.10.2009 07:00 5.5 C 91 % 1002.1 hPa 0.0 l/m 1.0 km/h (0 Bft) O-SO 0.00 h 0 W/m 4.2 C 5.4 C 1.9 km/h (1 Bft)
22.10.2009 08:00 5.2 C 94 % 1002.2 hPa 0.0 l/m 0.8 km/h (0 Bft) O-SO 0.00 h 26 W/m 4.2 C 5.1 C 1.6 km/h (1 Bft)
22.10.2009 09:00 5.7 C 96 % 1002.5 hPa 0.0 l/m 0.3 km/h (0 Bft) O-SO 0.00 h 61 W/m 5.1 C 5.7 C 0.6 km/h (0 Bft)
22.10.2009 10:00 6.7 C 97 % 1002.9 hPa 0.0 l/m 0.9 km/h (0 Bft) W 0.00 h 98 W/m 6.2 C 6.6 C 2.0 km/h (1 Bft)
22.10.2009 11:00 7.6 C 97 % 1003.5 hPa 0.0 l/m 0.1 km/h (0 Bft) W 0.00 h 81 W/m 7.2 C 7.6 C 0.8 km/h (0 Bft)
22.10.2009 12:00 8.4 C 96 % 1003.8 hPa 0.0 l/m 1.2 km/h (1 Bft) W 0.00 h 107 W/m 7.9 C 8.4 C 2.3 km/h (1 Bft)
22.10.2009 13:00 9.6 C 94 % 1003.9 hPa 0.0 l/m 1.0 km/h (0 Bft) W-NW 0.00 h 140 W/m 8.7 C 9.6 C 2.6 km/h (1 Bft)
22.10.2009 14:00 10.8 C 89 % 1003.7 hPa 0.0 l/m 0.8 km/h (0 Bft) W-NW 0.00 h 181 W/m 8.9 C 10.8 C 2.4 km/h (1 Bft)
22.10.2009 15:00 12.3 C 80 % 1003.4 hPa 0.0 l/m 2.0 km/h (1 Bft) W-NW 0.68 h 271 W/m 9.0 C 12.3 C 4.1 km/h (1 Bft)
22.10.2009 16:00 13.9 C 73 % 1003.2 hPa 0.0 l/m 2.6 km/h (1 Bft) W 0.97 h 216 W/m 9.2 C 13.9 C 4.3 km/h (1 Bft)
22.10.2009 17:00 13.9 C 73 % 1003.5 hPa 0.0 l/m 0.6 km/h (0 Bft) W 0.42 h 76 W/m 9.0 C 13.9 C 1.6 km/h (1 Bft)
22.10.2009 18:00 12.7 C 74 % 1003.7 hPa 0.0 l/m 0.1 km/h (0 Bft) W-NW 0.00 h 11 W/m 8.1 C 12.7 C 0.8 km/h (0 Bft)
22.10.2009 19:00 10.6 C 82 % 1004.4 hPa 0.0 l/m 0.6 km/h (0 Bft) W-NW 0.00 h 0 W/m 7.6 C 10.6 C 1.4 km/h (1 Bft)
22.10.2009 20:00 9.0 C 88 % 1005.1 hPa 0.0 l/m 0.8 km/h (0 Bft) O-SO 0.00 h 0 W/m 7.2 C 9.0 C 1.3 km/h (1 Bft)
22.10.2009 21:00 7.9 C 90 % 1005.5 hPa 0.0 l/m 0.0 km/h (0 Bft) O-SO 0.00 h 0 W/m 6.4 C 7.9 C 0.2 km/h (0 Bft)
22.10.2009 22:00 7.3 C 93 % 1005.3 hPa 0.0 l/m 0.2 km/h (0 Bft) O-SO 0.00 h 0 W/m 6.2 C 7.3 C 0.6 km/h (0 Bft)
22.10.2009 23:00 7.2 C 95 % 1005.7 hPa 0.0 l/m 0.6 km/h (0 Bft) O-SO 0.00 h 0 W/m 6.4 C 7.2 C 1.2 km/h (1 Bft)
23.10.2009 00:00 6.5 C 95 % 1006.0 hPa 0.0 l/m 0.4 km/h (0 Bft) O-SO 0.00 h 0 W/m 5.7 C 6.5 C 0.9 km/h (0 Bft)
23.10.2009 01:00 5.7 C 96 % 1006.3 hPa 0.0 l/m 0.5 km/h (0 Bft) O-SO 0.00 h 0 W/m 5.2 C 5.7 C 1.3 km/h (1 Bft)
23.10.2009 02:00 5.6 C 97 % 1006.6 hPa 0.0 l/m 0.3 km/h (0 Bft) O 0.00 h 0 W/m 5.1 C 5.6 C 0.7 km/h (0 Bft)
23.10.2009 03:00 5.3 C 97 % 1007.1 hPa 0.0 l/m 1.3 km/h (1 Bft) O-SO 0.00 h 0 W/m 4.9 C 5.2 C 2.5 km/h (1 Bft)
23.10.2009 04:00 5.1 C 98 % 1007.8 hPa 0.0 l/m 0.4 km/h (0 Bft) O-SO 0.00 h 0 W/m 4.8 C 5.1 C 0.8 km/h (0 Bft)
23.10.2009 05:00 5.1 C 98 % 1008.3 hPa 0.0 l/m 0.2 km/h (0 Bft) O-SO 0.00 h 0 W/m 4.8 C 5.1 C 0.7 km/h (0 Bft)
23.10.2009 06:00 5.2 C 99 % 1008.9 hPa 0.0 l/m 0.9 km/h (0 Bft) O-SO 0.00 h 0 W/m 5.1 C 5.2 C 1.9 km/h (1 Bft)
23.10.2009 07:00 5.8 C 100 % 1009.9 hPa 0.0 l/m 0.7 km/h (0 Bft) O-SO 0.00 h 0 W/m 5.8 C 5.8 C 1.8 km/h (1 Bft)
23.10.2009 08:00 6.3 C 100 % 1010.5 hPa 0.0 l/m 0.0 km/h (0 Bft) N 0.00 h 13 W/m 6.3 C 6.3 C 0.1 km/h (0 Bft)
23.10.2009 09:00 6.7 C 100 % 1011.3 hPa 0.4 l/m 0.3 km/h (0 Bft) NO 0.00 h 26 W/m 6.7 C 6.7 C 0.9 km/h (0 Bft)
23.10.2009 10:00 7.1 C 100 % 1011.9 hPa 0.4 l/m 0.1 km/h (0 Bft) NO 0.00 h 55 W/m 7.1 C 7.1 C 0.3 km/h (0 Bft)
23.10.2009 11:00 8.1 C 100 % 1012.5 hPa 0.2 l/m 0.2 km/h (0 Bft) NO 0.00 h 89 W/m 8.1 C 8.1 C 1.3 km/h (1 Bft)
23.10.2009 12:00 9.4 C 100 % 1012.9 hPa 0.4 l/m 2.2 km/h (1 Bft) W-SW 0.00 h 98 W/m 9.4 C 9.4 C 4.8 km/h (1 Bft)
23.10.2009 13:00 10.5 C 100 % 1012.8 hPa 0.2 l/m 2.2 km/h (1 Bft) W-SW 0.00 h 137 W/m 10.5 C 10.5 C 4.5 km/h (1 Bft)
23.10.2009 14:00 10.7 C 100 % 1013.0 hPa 0.0 l/m 5.0 km/h (1 Bft) W-SW 0.00 h 114 W/m 10.7 C 10.7 C 8.4 km/h (2 Bft)
23.10.2009 15:00 10.3 C 100 % 1013.5 hPa 0.4 l/m 2.9 km/h (1 Bft) W-SW 0.00 h 75 W/m 10.3 C 10.3 C 5.5 km/h (1 Bft)
23.10.2009 16:00 10.3 C 100 % 1014.2 hPa 0.2 l/m 0.3 km/h (0 Bft) S 0.00 h 69 W/m 10.3 C 10.3 C 1.6 km/h (1 Bft)
23.10.2009 17:00 10.5 C 100 % 1014.9 hPa 0.0 l/m 0.5 km/h (0 Bft) S 0.20 h 56 W/m 10.4 C 10.5 C 2.2 km/h (1 Bft)
23.10.2009 18:00 10.4 C 99 % 1015.4 hPa 0.0 l/m 0.4 km/h (0 Bft) S-SO 0.25 h 16 W/m 10.2 C 10.4 C 1.5 km/h (1 Bft)
23.10.2009 19:00 10.2 C 98 % 1015.9 hPa 0.0 l/m 0.5 km/h (0 Bft) S-SO 0.00 h 0 W/m 9.9 C 10.2 C 1.9 km/h (1 Bft)
23.10.2009 20:00 10.1 C 98 % 1016.1 hPa 0.0 l/m 0.4 km/h (0 Bft) S 0.00 h 0 W/m 9.8 C 10.1 C 1.6 km/h (1 Bft)
23.10.2009 21:00 9.9 C 98 % 1016.3 hPa 0.2 l/m 0.5 km/h (0 Bft) S 0.00 h 0 W/m 9.6 C 9.9 C 1.8 km/h (1 Bft)
23.10.2009 22:00 9.7 C 98 % 1016.6 hPa 0.0 l/m 0.8 km/h (0 Bft) S 0.00 h 0 W/m 9.4 C 9.7 C 2.3 km/h (1 Bft)
23.10.2009 23:00 9.7 C 98 % 1016.8 hPa 0.0 l/m 2.4 km/h (1 Bft) S-SO 0.00 h 0 W/m 9.4 C 9.7 C 4.8 km/h (1 Bft)
24.10.2009 00:00 9.7 C 99 % 1016.9 hPa 0.2 l/m 0.6 km/h (0 Bft) S-SO 0.00 h 0 W/m 9.5 C 9.7 C 2.0 km/h (1 Bft)
24.10.2009 01:00 9.6 C 99 % 1016.9 hPa 0.0 l/m 2.1 km/h (1 Bft) S-SO 0.00 h 0 W/m 9.4 C 9.6 C 4.0 km/h (1 Bft)
24.10.2009 02:00 9.4 C 99 % 1017.1 hPa 0.0 l/m 2.1 km/h (1 Bft) S-SO 0.00 h 0 W/m 9.2 C 9.3 C 4.1 km/h (1 Bft)
24.10.2009 03:00 9.2 C 99 % 1017.0 hPa 0.0 l/m 1.3 km/h (1 Bft) SO 0.00 h 0 W/m 9.1 C 9.2 C 3.2 km/h (1 Bft)
24.10.2009 04:00 9.2 C 99 % 1017.5 hPa 0.0 l/m 0.4 km/h (0 Bft) S 0.00 h 0 W/m 9.0 C 9.2 C 1.6 km/h (1 Bft)
24.10.2009 05:00 8.5 C 98 % 1017.6 hPa 0.2 l/m 1.1 km/h (1 Bft) S 0.00 h 0 W/m 8.3 C 8.5 C 2.5 km/h (1 Bft)
24.10.2009 06:00 8.6 C 99 % 1018.0 hPa 0.0 l/m 0.3 km/h (0 Bft) S 0.00 h 0 W/m 8.5 C 8.6 C 1.0 km/h (0 Bft)
24.10.2009 07:00 8.6 C 99 % 1018.2 hPa 0.0 l/m 0.0 km/h (0 Bft) S 0.00 h 0 W/m 8.5 C 8.6 C 0.3 km/h (0 Bft)
24.10.2009 08:00 8.7 C 99 % 1018.3 hPa 0.0 l/m 0.0 km/h (0 Bft) S 0.00 h 15 W/m 8.5 C 8.7 C 0.2 km/h (0 Bft)
24.10.2009 09:00 8.8 C 99 % 1018.4 hPa 0.0 l/m 0.0 km/h (0 Bft) N 0.00 h 42 W/m 8.7 C 8.8 C 0.0 km/h (0 Bft)
24.10.2009 10:00 9.1 C 99 % 1018.4 hPa 0.0 l/m 0.3 km/h (0 Bft) S 0.00 h 65 W/m 9.0 C 9.1 C 0.8 km/h (0 Bft)
24.10.2009 11:00 9.8 C 99 % 1018.6 hPa 0.0 l/m 0.4 km/h (0 Bft) NO 0.00 h 108 W/m 9.6 C 9.8 C 1.7 km/h (1 Bft)
24.10.2009 12:00 10.3 C 97 % 1018.5 hPa 0.0 l/m 0.2 km/h (0 Bft) NO 0.02 h 134 W/m 9.9 C 10.3 C 1.0 km/h (0 Bft)
24.10.2009 13:00 11.2 C 91 % 1017.8 hPa 0.0 l/m 0.6 km/h (0 Bft) NO 0.00 h 178 W/m 9.9 C 11.2 C 2.1 km/h (1 Bft)
24.10.2009 14:00 11.7 C 85 % 1017.4 hPa 0.0 l/m 2.1 km/h (1 Bft) W-NW 0.03 h 217 W/m 9.3 C 11.7 C 4.0 km/h (1 Bft)
24.10.2009 15:00 12.1 C 81 % 1017.0 hPa 0.0 l/m 1.3 km/h (1 Bft) W-NW 0.42 h 211 W/m 9.0 C 12.1 C 3.0 km/h (1 Bft)
24.10.2009 16:00 12.3 C 80 % 1016.9 hPa 0.0 l/m 1.0 km/h (0 Bft) SO 0.62 h 159 W/m 8.9 C 12.3 C 3.0 km/h (1 Bft)
24.10.2009 17:00 12.1 C 80 % 1017.1 hPa 0.0 l/m 0.3 km/h (0 Bft) S 0.33 h 67 W/m 8.7 C 12.1 C 1.9 km/h (1 Bft)
24.10.2009 18:00 10.6 C 83 % 1017.6 hPa 0.0 l/m 2.3 km/h (1 Bft) S-SO 0.00 h 12 W/m 7.8 C 10.6 C 4.6 km/h (1 Bft)
24.10.2009 19:00 9.8 C 87 % 1017.9 hPa 0.0 l/m 0.5 km/h (0 Bft) SO 0.00 h 0 W/m 7.7 C 9.8 C 1.4 km/h (1 Bft)
24.10.2009 20:00 9.5 C 88 % 1018.1 hPa 0.0 l/m 0.2 km/h (0 Bft) SO 0.00 h 0 W/m 7.6 C 9.5 C 0.8 km/h (0 Bft)
24.10.2009 21:00 9.5 C 89 % 1018.3 hPa 0.0 l/m 0.8 km/h (0 Bft) SO 0.00 h 0 W/m 7.9 C 9.5 C 1.7 km/h (1 Bft)
24.10.2009 22:00 9.5 C 92 % 1018.0 hPa 0.0 l/m 1.9 km/h (1 Bft) O-SO 0.00 h 0 W/m 8.3 C 9.4 C 3.3 km/h (1 Bft)
24.10.2009 23:00 9.5 C 94 % 1017.9 hPa 0.0 l/m 0.1 km/h (0 Bft) O-SO 0.00 h 0 W/m 8.5 C 9.5 C 0.6 km/h (0 Bft)
25.10.2009 00:00 9.4 C 95 % 1017.7 hPa 0.0 l/m 0.2 km/h (0 Bft) O-SO 0.00 h 0 W/m 8.6 C 9.4 C 0.6 km/h (0 Bft)
25.10.2009 01:00 9.7 C 96 % 1017.4 hPa 0.0 l/m 0.0 km/h (0 Bft) O-SO 0.00 h 0 W/m 9.1 C 9.7 C 0.0 km/h (0 Bft)
25.10.2009 02:00 9.9 C 97 % 1016.9 hPa 0.0 l/m 0.1 km/h (0 Bft) O-SO 0.00 h 0 W/m 9.4 C 9.9 C 0.6 km/h (0 Bft)
25.10.2009 03:00 9.9 C 96 % 1016.5 hPa 0.0 l/m 0.5 km/h (0 Bft) O-SO 0.00 h 0 W/m 9.3 C 9.9 C 1.2 km/h (1 Bft)
25.10.2009 04:00 9.8 C 95 % 1016.5 hPa 0.0 l/m 0.2 km/h (0 Bft) O-SO 0.00 h 0 W/m 9.1 C 9.8 C 0.6 km/h (0 Bft)
25.10.2009 05:00 9.3 C 95 % 1016.8 hPa 0.0 l/m 0.1 km/h (0 Bft) O-SO 0.00 h 0 W/m 8.6 C 9.3 C 0.8 km/h (0 Bft)
25.10.2009 06:00 9.5 C 96 % 1016.9 hPa 0.0 l/m 0.1 km/h (0 Bft) O-SO 0.00 h 0 W/m 8.9 C 9.5 C 0.7 km/h (0 Bft)
25.10.2009 07:00 9.8 C 96 % 1017.1 hPa 0.0 l/m 0.0 km/h (0 Bft) N 0.05 h 23 W/m 9.2 C 9.8 C 0.1 km/h (0 Bft)
25.10.2009 08:00 10.4 C 96 % 1017.4 hPa 0.8 l/m 0.6 km/h (0 Bft) S 0.00 h 72 W/m 9.8 C 10.4 C 1.9 km/h (1 Bft)
25.10.2009 09:00 10.6 C 95 % 1017.4 hPa 2.0 l/m 1.4 km/h (1 Bft) S-SO 0.00 h 45 W/m 9.9 C 10.6 C 3.6 km/h (1 Bft)
25.10.2009 10:00 10.8 C 96 % 1017.5 hPa 0.2 l/m 0.7 km/h (0 Bft) S 0.00 h 70 W/m 10.2 C 10.8 C 2.5 km/h (1 Bft)
25.10.2009 11:00 11.5 C 97 % 1017.4 hPa 0.0 l/m 0.6 km/h (0 Bft) S-SW 0.00 h 116 W/m 11.1 C 11.5 C 2.4 km/h (1 Bft)
25.10.2009 12:00 12.0 C 97 % 1017.2 hPa 0.0 l/m 1.1 km/h (1 Bft) S-SO 0.00 h 105 W/m 11.6 C 12.0 C 3.5 km/h (1 Bft)
25.10.2009 13:00 12.4 C 97 % 1016.9 hPa 0.0 l/m 0.1 km/h (0 Bft) S 0.00 h 74 W/m 11.9 C 12.4 C 0.7 km/h (0 Bft)
25.10.2009 14:00 12.9 C 97 % 1017.1 hPa 0.0 l/m 0.1 km/h (0 Bft) S 0.00 h 52 W/m 12.4 C 12.9 C 0.7 km/h (0 Bft)
25.10.2009 15:00 12.9 C 97 % 1017.2 hPa 0.0 l/m 0.3 km/h (0 Bft) S 0.00 h 56 W/m 12.5 C 12.9 C 1.2 km/h (1 Bft)
25.10.2009 16:00 12.8 C 97 % 1017.3 hPa 0.0 l/m 0.1 km/h (0 Bft) O-SO 0.00 h 20 W/m 12.3 C 12.8 C 0.4 km/h (0 Bft)
25.10.2009 17:00 12.6 C 97 % 1017.6 hPa 0.0 l/m 0.3 km/h (0 Bft) O-SO 0.00 h 5 W/m 12.1 C 12.6 C 0.5 km/h (0 Bft)
25.10.2009 18:00 12.4 C 97 % 1018.1 hPa 0.0 l/m 0.3 km/h (0 Bft) O-SO 0.00 h 0 W/m 11.9 C 12.4 C 0.9 km/h (0 Bft)
25.10.2009 19:00 12.3 C 97 % 1018.2 hPa 0.0 l/m 2.1 km/h (1 Bft) O-SO 0.00 h 0 W/m 11.9 C 12.3 C 3.7 km/h (1 Bft)
25.10.2009 20:00 12.2 C 98 % 1018.3 hPa 0.0 l/m 0.6 km/h (0 Bft) SO 0.00 h 0 W/m 11.9 C 12.2 C 1.3 km/h (1 Bft)
25.10.2009 21:00 12.2 C 99 % 1018.4 hPa 0.0 l/m 0.5 km/h (0 Bft) SO 0.00 h 0 W/m 12.0 C 12.2 C 1.6 km/h (1 Bft)
25.10.2009 22:00 12.2 C 99 % 1018.4 hPa 0.0 l/m 0.8 km/h (0 Bft) S-SO 0.00 h 0 W/m 12.0 C 12.2 C 2.0 km/h (1 Bft)
25.10.2009 23:00 11.9 C 99 % 1018.3 hPa 0.2 l/m 0.0 km/h (0 Bft) S-SO 0.00 h 0 W/m 11.7 C 11.9 C 0.3 km/h (0 Bft)
Min-Datum _ 20.10.09 19.10.09 21.10.09 - 19.10.09 - - - 20.10.09 20.10.09 19.10.09
_ Min-Zeit 03:00 16:16 19:00 - 00:01 - - - 01:42 02:48 00:03
Minimum _ -0.7 C 57 % 999.3 hPa - 0.0 km/h (0 Bft) - - - -1.5 C -0.6 C 0.0 km/h (0 Bft)
Max-Datum _ 21.10.09 23.10.09 19.10.09 25.10.09 19.10.09 - 19.10.09 21.10.09 25.10.09 21.10.09 19.10.09
_ Max-Zeit 16:33 07:28 00:00 09:01 13:36 - 08:02 13:39 14:58 16:33 13:33
Maximum _ 14.4 C 100 % 1022.3 hPa 2.0 l/m 19.1 km/h
O-SO (3 Bft)
- 0.02 h 633 W/m 12.6 C 14.4 C 26.1 km/h
O-SO (4 Bft)
Durchschnitt _ 7.7 C 89 % 1012.2 hPa #6.2 l/m 1.4 km/h (1 Bft) O-SO #16:37 h 131 W/m 5.9 C 7.6 C 2.8 km/h (1 Bft)
© Kaiko 2009